Time;durP1;ratioP1;P1;durP2;ratioP2;P2;SDS_P1;SDS_P2;PMS_P1;PMS_P2;Temp;Humidity;BMP_temperature;BMP_pressure;BME280_temperature;BME280_humidity;BME280_pressure;Samples;Min_cycle;Max_cycle;Signal;HPM_P1;HPM_P2
2024/02/11 00:02:12;;;;;;;18.63;9.67;;;8.60;99.90;8.50;97902.00;;;;4913904;28;82744;-73
2024/02/11 00:04:38;;;;;;;15.20;9.80;;;8.60;99.90;8.50;97896.00;;;;4913711;28;100659;-72
2024/02/11 00:07:07;;;;;;;12.13;8.90;;;8.60;99.90;8.60;97910.00;;;;4914641;28;83305;-74
2024/02/11 00:09:32;;;;;;;16.13;10.80;;;8.70;99.90;8.60;97900.00;;;;4916475;28;82834;-71
2024/02/11 00:11:58;;;;;;;15.83;8.73;;;8.60;99.90;8.60;97901.00;;;;4909952;28;108358;-74
2024/02/11 00:14:26;;;;;;;17.07;9.07;;;8.70;99.90;8.60;97906.00;;;;4915090;28;110291;-73
2024/02/11 00:16:57;;;;;;;16.70;9.10;;;8.70;99.90;8.60;97902.00;;;;4917533;28;84703;-73
2024/02/11 00:19:24;;;;;;;19.73;10.87;;;8.70;99.90;8.60;97898.00;;;;4913511;28;84881;-72
2024/02/11 00:21:50;;;;;;;18.67;12.37;;;8.70;99.90;8.60;97888.00;;;;4912485;28;83849;-75
2024/02/11 00:24:15;;;;;;;21.73;10.47;;;8.70;99.90;8.60;97888.00;;;;4914435;28;107996;-73
2024/02/11 00:26:41;;;;;;;16.97;10.67;;;8.70;99.90;8.60;97891.00;;;;4913549;28;83858;-74
2024/02/11 00:29:09;;;;;;;20.10;9.77;;;8.70;99.90;8.60;97888.00;;;;4910654;28;111531;-71
2024/02/11 00:31:35;;;;;;;11.73;8.27;;;8.70;99.90;8.60;97882.00;;;;4918708;28;83535;-72
2024/02/11 00:34:04;;;;;;;20.20;11.20;;;8.70;99.90;8.60;97889.00;;;;4912642;28;82247;-73
2024/02/11 00:36:30;;;;;;;14.53;9.43;;;8.70;99.90;8.60;97880.00;;;;4913607;28;83765;-71
2024/02/11 00:38:56;;;;;;;19.77;11.73;;;8.70;99.90;8.60;97885.00;;;;4915847;28;103251;-73
2024/02/11 00:41:22;;;;;;;18.50;11.77;;;8.70;99.90;8.60;97885.00;;;;4912731;28;110332;-74
2024/02/11 00:43:50;;;;;;;19.40;11.67;;;8.70;99.90;8.60;97881.00;;;;4917963;28;97099;-72
2024/02/11 00:46:16;;;;;;;17.33;10.50;;;8.70;99.90;8.60;97879.00;;;;4911043;28;83822;-71
2024/02/11 00:48:44;;;;;;;19.53;11.47;;;8.70;99.90;8.60;97875.00;;;;4909803;28;103468;-71
2024/02/11 00:51:10;;;;;;;22.00;11.53;;;8.70;99.90;8.60;97872.00;;;;4914652;28;83426;-71
2024/02/11 00:53:36;;;;;;;22.20;10.50;;;8.70;99.90;8.60;97866.00;;;;4917811;28;83414;-74
2024/02/11 00:56:02;;;;;;;17.30;11.27;;;8.80;99.90;8.60;97879.00;;;;4917871;28;85439;-70
2024/02/11 00:58:30;;;;;;;18.77;10.23;;;8.70;99.90;8.60;97878.00;;;;4914097;28;83728;-71
2024/02/11 01:00:55;;;;;;;19.13;10.73;;;8.70;99.90;8.70;97876.00;;;;4916472;28;84029;-71
2024/02/11 01:03:21;;;;;;;20.53;11.67;;;8.70;99.90;8.60;97871.00;;;;4913909;28;108607;-73
2024/02/11 01:05:47;;;;;;;18.47;10.60;;;8.70;99.90;8.60;97875.00;;;;4908648;28;108260;-71
2024/02/11 01:08:12;;;;;;;19.33;10.33;;;8.70;99.90;8.60;97871.00;;;;4913349;28;113426;-73
2024/02/11 01:10:38;;;;;;;17.53;10.83;;;8.80;99.90;8.60;97858.00;;;;4911172;28;112760;-71
2024/02/11 01:13:04;;;;;;;16.83;10.73;;;8.70;99.90;8.60;97869.00;;;;4914861;28;83637;-70
2024/02/11 01:15:30;;;;;;;14.70;9.70;;;8.70;99.90;8.60;97865.00;;;;4914706;28;83633;-74
2024/02/11 01:17:56;;;;;;;17.47;11.17;;;8.70;99.90;8.60;97865.00;;;;4911999;28;110997;-70
2024/02/11 01:20:21;;;;;;;17.67;12.97;;;8.70;99.90;8.60;97871.00;;;;4913510;28;108974;-72
2024/02/11 01:22:48;;;;;;;21.13;10.37;;;8.70;99.90;8.60;97859.00;;;;4909714;28;83695;-74
2024/02/11 01:25:20;;;;;;;22.10;11.17;;;8.70;99.90;8.60;97867.00;;;;4913932;28;112906;-72
2024/02/11 01:27:49;;;;;;;23.80;12.13;;;8.70;99.90;8.60;97866.00;;;;4915049;28;83824;-71
2024/02/11 01:30:17;;;;;;;17.20;10.87;;;8.70;99.90;8.60;97862.00;;;;4910989;28;84735;-71
2024/02/11 01:32:43;;;;;;;14.70;10.43;;;8.70;99.90;8.60;97863.00;;;;4915674;28;83496;-71
2024/02/11 01:35:12;;;;;;;29.33;11.60;;;8.10;99.90;8.60;97866.00;;;;4908934;28;100024;-73
2024/02/11 01:37:40;;;;;;;20.17;11.30;;;8.70;99.90;8.60;97858.00;;;;4909908;28;84551;-75
2024/02/11 01:40:15;;;;;;;19.03;11.70;;;8.70;99.90;8.60;97857.00;;;;4907541;28;84845;-71
2024/02/11 01:42:44;;;;;;;19.90;10.20;;;8.70;99.90;8.60;97851.00;;;;4911436;28;83491;-71
2024/02/11 01:45:10;;;;;;;18.13;11.10;;;8.70;99.90;8.60;97852.00;;;;4911130;28;83941;-71
2024/02/11 01:47:36;;;;;;;18.87;10.83;;;8.70;99.90;8.60;97848.00;;;;4915535;28;105934;-70
2024/02/11 01:50:08;;;;;;;17.17;10.13;;;8.70;99.90;8.60;97850.00;;;;4910667;28;83954;-73
2024/02/11 01:52:36;;;;;;;17.30;11.50;;;9.10;99.90;8.60;97857.00;;;;4914271;28;83778;-71
2024/02/11 01:55:06;;;;;;;18.43;10.70;;;8.70;99.90;8.60;97844.00;;;;4911690;28;85292;-72
2024/02/11 01:57:33;;;;;;;19.73;11.40;;;8.70;99.90;8.60;97853.00;;;;4911274;28;85296;-72
2024/02/11 01:59:59;;;;;;;17.73;10.50;;;8.80;99.90;8.60;97847.00;;;;4910747;28;83675;-70
2024/02/11 02:02:29;;;;;;;16.40;10.50;;;8.90;99.90;8.60;97845.00;;;;4903654;28;88474;-74
2024/02/11 02:04:55;;;;;;;17.73;11.43;;;8.70;99.90;8.60;97847.00;;;;4912098;28;83579;-73
2024/02/11 02:07:20;;;;;;;22.97;11.40;;;8.70;99.90;8.60;97844.00;;;;4915506;28;102724;-73
2024/02/11 02:09:48;;;;;;;26.13;11.73;;;8.70;99.90;8.60;97847.00;;;;4915090;28;112509;-72
2024/02/11 02:12:17;;;;;;;20.47;11.43;;;8.70;99.90;8.60;97848.00;;;;4914813;28;87112;-73
2024/02/11 02:14:43;;;;;;;15.77;10.60;;;8.70;99.90;8.50;97848.00;;;;4912278;28;83604;-72
2024/02/11 02:17:08;;;;;;;22.90;12.43;;;8.60;99.90;8.50;97839.00;;;;4902012;28;100834;-75
2024/02/11 02:19:34;;;;;;;17.60;10.03;;;8.70;99.90;8.50;97845.00;;;;4897241;28;113722;-71
2024/02/11 02:22:00;;;;;;;17.13;10.37;;;8.60;99.90;8.50;97852.00;;;;4910807;28;108186;-72
2024/02/11 02:24:26;;;;;;;15.93;11.03;;;8.60;99.90;8.50;97843.00;;;;4911880;28;114753;-73
2024/02/11 02:26:51;;;;;;;19.43;11.90;;;8.60;99.90;8.50;97841.00;;;;4916300;28;115759;-72
2024/02/11 02:29:17;;;;;;;17.47;11.27;;;8.60;99.90;8.50;97834.00;;;;4893499;28;112129;-71
2024/02/11 02:31:43;;;;;;;14.40;10.07;;;8.60;99.90;8.50;97829.00;;;;4893560;28;83634;-74
2024/02/11 02:34:08;;;;;;;22.83;11.13;;;8.50;99.90;8.50;97831.00;;;;4916337;28;113904;-71
2024/02/11 02:36:34;;;;;;;17.43;12.50;;;8.60;99.90;8.50;97842.00;;;;4915040;28;84114;-72
2024/02/11 02:39:02;;;;;;;20.27;10.70;;;8.50;99.90;8.40;97838.00;;;;4916365;28;83683;-73
2024/02/11 02:41:28;;;;;;;17.90;11.20;;;8.50;99.90;8.40;97831.00;;;;4912100;28;83899;-75
2024/02/11 02:43:53;;;;;;;20.03;11.50;;;8.50;99.90;8.40;97837.00;;;;4913453;28;113781;-72
2024/02/11 02:46:19;;;;;;;19.10;11.27;;;8.50;99.90;8.40;97839.00;;;;4915015;28;113708;-73
2024/02/11 02:48:50;;;;;;;18.83;11.63;;;8.50;99.90;8.40;97833.00;;;;4919033;28;98376;-71
2024/02/11 02:51:18;;;;;;;15.83;10.57;;;8.50;99.90;8.40;97836.00;;;;4912669;28;83333;-72
2024/02/11 02:53:44;;;;;;;22.70;10.87;;;8.50;99.90;8.40;97832.00;;;;4914209;28;83516;-71
2024/02/11 02:56:10;;;;;;;21.40;12.40;;;8.50;99.90;8.40;97825.00;;;;4912610;28;113765;-72
2024/02/11 02:58:36;;;;;;;20.77;12.23;;;8.50;99.90;8.40;97826.00;;;;4917771;28;113740;-71
2024/02/11 03:01:04;;;;;;;22.90;12.13;;;8.40;99.90;8.40;97825.00;;;;4915206;28;106762;-71
2024/02/11 03:03:30;;;;;;;22.60;12.47;;;8.50;99.90;8.40;97824.00;;;;4912254;28;83262;-71
2024/02/11 03:05:56;;;;;;;23.00;12.93;;;8.40;99.90;8.40;97829.00;;;;4916533;28;83874;-72
2024/02/11 03:08:21;;;;;;;21.40;12.60;;;8.40;99.90;8.30;97815.00;;;;4915452;28;113071;-72
2024/02/11 03:10:47;;;;;;;17.87;11.00;;;8.40;99.90;8.30;97814.00;;;;4913672;28;109174;-73
2024/02/11 03:13:13;;;;;;;22.40;11.87;;;8.40;99.90;8.30;97811.00;;;;4914057;28;113078;-72
2024/02/11 03:15:38;;;;;;;19.63;13.10;;;8.40;99.90;8.30;97821.00;;;;4913774;28;83889;-73
2024/02/11 03:18:04;;;;;;;26.83;12.57;;;8.40;99.90;8.30;97807.00;;;;4914151;28;95751;-72
2024/02/11 03:20:30;;;;;;;21.63;11.67;;;8.40;99.90;8.30;97799.00;;;;4912314;28;97604;-72
2024/02/11 03:22:56;;;;;;;23.07;12.43;;;8.30;99.90;8.30;97806.00;;;;4918074;28;84454;-70
2024/02/11 03:25:22;;;;;;;21.77;11.73;;;8.40;99.90;8.30;97808.00;;;;4913365;28;113360;-71
2024/02/11 03:27:53;;;;;;;19.20;12.00;;;8.40;99.90;8.30;97810.00;;;;4911997;28;113191;-71
2024/02/11 03:30:21;;;;;;;26.00;12.50;;;8.40;99.90;8.30;97809.00;;;;4913545;28;83448;-73
2024/02/11 03:32:48;;;;;;;19.97;13.20;;;8.40;99.90;8.30;97812.00;;;;4915792;28;84355;-72
2024/02/11 03:35:15;;;;;;;24.80;14.23;;;8.40;99.90;8.30;97810.00;;;;4914270;28;107993;-73
2024/02/11 03:37:40;;;;;;;22.13;14.03;;;8.40;99.90;8.30;97802.00;;;;4913354;28;84265;-73
2024/02/11 03:40:12;;;;;;;22.60;13.13;;;8.40;99.90;8.30;97808.00;;;;4898062;28;108765;-70
2024/02/11 03:42:37;;;;;;;21.10;12.03;;;8.40;99.90;8.30;97808.00;;;;4916774;28;83554;-71
2024/02/11 03:45:11;;;;;;;23.37;13.63;;;8.40;99.90;8.30;97811.00;;;;4899200;28;112829;-71
2024/02/11 03:47:38;;;;;;;19.53;14.07;;;8.50;99.90;8.30;97806.00;;;;4917225;28;83892;-71
2024/02/11 03:50:05;;;;;;;22.07;14.17;;;8.40;99.90;8.30;97808.00;;;;4915818;28;83317;-73
2024/02/11 03:52:34;;;;;;;22.47;12.67;;;8.40;99.90;8.30;97802.00;;;;4915207;28;83563;-71
2024/02/11 03:55:02;;;;;;;34.63;14.73;;;8.40;99.90;8.30;97807.00;;;;4916031;28;83853;-71
2024/02/11 03:57:28;;;;;;;17.63;11.47;;;8.40;99.90;8.30;97801.00;;;;4931020;28;85953;-75
2024/02/11 03:59:54;;;;;;;16.40;11.17;;;8.40;99.90;8.30;97817.00;;;;4915330;28;106747;-72
2024/02/11 04:02:19;;;;;;;20.37;13.63;;;8.40;99.90;8.30;97814.00;;;;4914994;28;113494;-71
2024/02/11 04:04:45;;;;;;;19.50;12.67;;;8.50;99.90;8.30;97814.00;;;;4912777;28;84586;-72
2024/02/11 04:07:11;;;;;;;21.70;12.53;;;8.40;99.90;8.30;97818.00;;;;4912525;28;84213;-71
2024/02/11 04:09:39;;;;;;;19.07;12.53;;;8.40;99.90;8.30;97810.00;;;;4903107;28;83349;-74
2024/02/11 04:12:26;;;;;;;23.57;12.23;;;8.40;99.90;8.30;97817.00;;;;4918856;28;84388;-71
2024/02/11 04:14:52;;;;;;;26.77;12.33;;;8.40;99.90;8.30;97812.00;;;;4914619;28;83744;-71
2024/02/11 04:17:20;;;;;;;17.40;10.83;;;8.40;99.90;8.30;97812.00;;;;4915861;28;83132;-71
2024/02/11 04:19:46;;;;;;;21.03;11.40;;;8.30;99.90;8.30;97807.00;;;;4910773;28;84383;-70
2024/02/11 04:22:14;;;;;;;21.50;11.27;;;8.40;99.90;8.30;97819.00;;;;4913706;28;88479;-73
2024/02/11 04:24:46;;;;;;;17.80;11.00;;;8.40;99.90;8.30;97812.00;;;;4917499;28;83601;-71
2024/02/11 04:27:16;;;;;;;20.13;12.37;;;8.40;99.90;8.30;97816.00;;;;4914336;28;84138;-71
2024/02/11 04:29:45;;;;;;;18.37;10.57;;;8.40;99.90;8.30;97808.00;;;;4902432;28;83286;-73
2024/02/11 04:32:11;;;;;;;25.03;11.57;;;8.40;99.90;8.30;97817.00;;;;4912501;28;83477;-71
2024/02/11 04:34:41;;;;;;;16.50;11.40;;;8.40;99.90;8.30;97805.00;;;;4915878;28;83909;-73
2024/02/11 04:37:07;;;;;;;17.37;11.57;;;8.30;99.90;8.30;97806.00;;;;4909993;28;83920;-71
2024/02/11 04:39:33;;;;;;;28.03;13.77;;;8.40;99.90;8.30;97807.00;;;;4916619;28;83405;-71
2024/02/11 04:41:59;;;;;;;13.23;10.67;;;8.40;99.90;8.20;97801.00;;;;4917221;28;102206;-73
2024/02/11 04:44:27;;;;;;;22.90;12.83;;;8.30;99.90;8.20;97799.00;;;;4913195;28;111866;-70
2024/02/11 04:46:53;;;;;;;16.90;10.77;;;8.30;99.90;8.20;97802.00;;;;4911395;28;84169;-70
2024/02/11 04:49:21;;;;;;;22.80;12.53;;;8.30;99.90;8.20;97796.00;;;;4910842;28;83581;-70
2024/02/11 04:51:49;;;;;;;20.00;11.93;;;8.30;99.90;8.20;97798.00;;;;4908577;28;83724;-72
2024/02/11 04:54:14;;;;;;;21.83;11.70;;;8.30;99.90;8.20;97801.00;;;;4914604;28;83585;-70
2024/02/11 04:56:46;;;;;;;19.83;10.97;;;8.30;99.90;8.20;97799.00;;;;4910275;28;113291;-70
2024/02/11 04:59:15;;;;;;;23.17;11.67;;;8.30;99.90;8.20;97799.00;;;;4915919;28;83515;-71
2024/02/11 05:01:43;;;;;;;17.47;11.47;;;8.30;99.90;8.20;97800.00;;;;4927956;28;83435;-72
2024/02/11 05:04:10;;;;;;;17.93;10.13;;;8.20;99.90;8.20;97795.00;;;;4912449;28;84293;-70
2024/02/11 05:06:40;;;;;;;16.70;9.77;;;8.30;99.90;8.20;97803.00;;;;4912638;28;84144;-71
2024/02/11 05:09:09;;;;;;;20.10;13.07;;;8.30;99.90;8.20;97790.00;;;;4912244;28;82729;-71
2024/02/11 05:11:35;;;;;;;17.47;12.13;;;8.20;99.90;8.10;97798.00;;;;4915788;28;83948;-72
2024/02/11 05:14:01;;;;;;;17.00;9.97;;;8.20;99.90;8.10;97796.00;;;;4915643;28;84458;-70
2024/02/11 05:16:28;;;;;;;19.20;11.50;;;8.20;99.90;8.20;97800.00;;;;4911864;28;112353;-73
2024/02/11 05:18:54;;;;;;;21.37;12.03;;;8.20;99.90;8.10;97804.00;;;;4913364;28;83456;-70
2024/02/11 05:21:20;;;;;;;16.70;11.53;;;7.70;99.90;8.10;97805.00;;;;4911754;28;104434;-71
2024/02/11 05:23:47;;;;;;;19.90;13.03;;;8.20;99.90;8.10;97801.00;;;;4909062;28;83587;-72
2024/02/11 05:26:17;;;;;;;24.90;12.27;;;8.20;99.90;8.10;97796.00;;;;4913291;28;84154;-72
2024/02/11 05:28:43;;;;;;;21.03;13.33;;;8.20;99.90;8.10;97793.00;;;;4916180;28;84993;-70
2024/02/11 05:31:11;;;;;;;21.80;12.63;;;8.20;99.90;8.10;97793.00;;;;4911523;28;84885;-71
2024/02/11 05:33:37;;;;;;;20.87;11.17;;;8.30;99.90;8.10;97798.00;;;;4916117;28;86917;-70
2024/02/11 05:36:08;;;;;;;19.27;10.97;;;8.20;99.90;8.10;97789.00;;;;4911087;28;83788;-71
2024/02/11 05:38:39;;;;;;;16.93;11.07;;;8.20;99.90;8.10;97792.00;;;;4919456;28;83470;-71
2024/02/11 05:41:06;;;;;;;17.80;10.97;;;8.20;99.90;8.10;97792.00;;;;4911397;28;83539;-72
2024/02/11 05:43:31;;;;;;;14.27;10.40;;;8.20;99.90;8.10;97792.00;;;;4909743;28;83400;-70
2024/02/11 05:45:58;;;;;;;20.43;10.63;;;8.10;99.90;8.10;97790.00;;;;4906475;28;112064;-73
2024/02/11 05:48:24;;;;;;;17.47;10.60;;;8.20;99.90;8.10;97792.00;;;;4914881;28;83428;-70
2024/02/11 05:50:49;;;;;;;15.80;10.73;;;8.10;99.90;8.10;97788.00;;;;4912019;28;91941;-70
2024/02/11 05:53:16;;;;;;;22.17;11.27;;;8.20;99.90;8.10;97784.00;;;;4912498;28;113470;-73
2024/02/11 05:55:42;;;;;;;16.03;10.60;;;8.20;99.90;8.10;97797.00;;;;4902144;28;88948;-72
2024/02/11 05:58:08;;;;;;;20.43;11.30;;;8.20;99.90;8.10;97795.00;;;;4912686;28;83777;-73
2024/02/11 06:00:36;;;;;;;15.03;9.67;;;8.20;99.90;8.00;97786.00;;;;4899760;28;85658;-72
2024/02/11 06:03:02;;;;;;;17.03;11.13;;;8.10;99.90;8.10;97793.00;;;;4916182;28;83702;-72
2024/02/11 06:05:28;;;;;;;16.77;10.43;;;8.20;99.90;8.00;97789.00;;;;4914550;28;96702;-72
2024/02/11 06:07:59;;;;;;;14.73;11.67;;;8.10;99.90;8.00;97787.00;;;;4919213;28;83889;-72
2024/02/11 06:10:35;;;;;;;15.07;8.97;;;8.20;99.90;8.00;97792.00;;;;4917549;28;84186;-72
2024/02/11 06:13:03;;;;;;;17.63;10.47;;;8.20;99.90;8.00;97788.00;;;;4917202;28;82739;-72
2024/02/11 06:15:30;;;;;;;16.33;10.23;;;8.20;99.90;8.00;97785.00;;;;4918625;28;84146;-72
2024/02/11 06:17:58;;;;;;;19.00;10.00;;;8.10;99.90;8.00;97803.00;;;;4916421;28;83848;-72
2024/02/11 06:20:24;;;;;;;15.40;9.93;;;8.10;99.90;8.00;97801.00;;;;4912561;28;83711;-71
2024/02/11 06:22:54;;;;;;;24.33;12.60;;;8.10;99.90;8.00;97810.00;;;;4918316;28;82826;-71
2024/02/11 06:25:22;;;;;;;15.77;11.30;;;8.10;99.90;8.00;97811.00;;;;4915520;28;83792;-71
2024/02/11 06:27:49;;;;;;;16.67;10.90;;;8.10;99.90;8.00;97809.00;;;;4915724;28;83415;-72
2024/02/11 06:30:17;;;;;;;13.83;9.17;;;8.20;99.90;8.00;97815.00;;;;4917899;28;83963;-72
2024/02/11 06:32:49;;;;;;;20.10;10.90;;;8.10;99.90;8.00;97820.00;;;;4915871;28;83040;-72
2024/02/11 06:35:15;;;;;;;17.20;11.30;;;8.10;99.90;8.00;97813.00;;;;4912142;28;83689;-71
2024/02/11 06:37:43;;;;;;;18.47;10.00;;;8.10;99.90;8.00;97814.00;;;;4915170;28;83500;-72
2024/02/11 06:40:14;;;;;;;16.13;11.57;;;8.10;99.90;8.00;97826.00;;;;4913515;28;96600;-71
2024/02/11 06:42:48;;;;;;;15.63;11.70;;;8.00;99.90;8.00;97823.00;;;;4915607;28;88278;-70
2024/02/11 06:45:14;;;;;;;21.60;10.33;;;8.90;99.90;8.00;97827.00;;;;4912465;28;87755;-71
2024/02/11 06:47:40;;;;;;;13.77;10.00;;;8.10;99.90;8.00;97820.00;;;;4913619;28;87675;-70
2024/02/11 06:50:09;;;;;;;17.30;10.13;;;8.10;99.90;8.00;97833.00;;;;4914403;28;109215;-71
2024/02/11 06:52:35;;;;;;;15.83;10.43;;;8.10;99.90;8.00;97828.00;;;;4913233;28;88833;-71
2024/02/11 06:55:02;;;;;;;18.73;11.70;;;8.10;99.90;7.90;97820.00;;;;4911807;28;99931;-71
2024/02/11 06:57:29;;;;;;;19.53;11.43;;;8.00;99.90;7.90;97840.00;;;;4912829;28;88281;-71
2024/02/11 06:59:57;;;;;;;17.90;10.77;;;8.10;99.90;7.90;97836.00;;;;4917556;28;88547;-71
2024/02/11 07:02:23;;;;;;;22.17;11.37;;;8.00;99.90;7.90;97827.00;;;;4910660;28;88117;-71
2024/02/11 07:04:48;;;;;;;15.63;9.87;;;8.10;99.90;7.90;97829.00;;;;4914197;28;115032;-71
2024/02/11 07:07:14;;;;;;;19.63;11.77;;;8.00;99.90;7.90;97834.00;;;;4914492;28;101654;-71
2024/02/11 07:09:41;;;;;;;16.43;11.03;;;8.00;99.90;7.90;97838.00;;;;4912467;28;117805;-71
2024/02/11 07:12:06;;;;;;;14.33;10.57;;;8.00;99.90;7.90;97839.00;;;;4912507;28;89376;-71
2024/02/11 07:14:32;;;;;;;17.47;11.90;;;8.10;99.90;7.90;97835.00;;;;4910518;28;110662;-71
2024/02/11 07:17:00;;;;;;;17.47;10.50;;;8.00;99.90;7.90;97843.00;;;;4912403;28;108279;-71
2024/02/11 07:19:28;;;;;;;20.13;12.63;;;8.10;99.90;7.90;97848.00;;;;4910791;28;88080;-70
2024/02/11 07:21:53;;;;;;;17.83;10.43;;;8.00;99.90;7.90;97846.00;;;;4912357;28;87891;-71
2024/02/11 07:24:20;;;;;;;17.57;12.07;;;8.00;99.90;7.90;97849.00;;;;4893299;28;115337;-70
2024/02/11 07:26:49;;;;;;;14.07;10.40;;;8.10;99.90;7.90;97852.00;;;;4912501;28;88215;-71
2024/02/11 07:29:17;;;;;;;23.47;12.33;;;8.10;99.90;8.00;97861.00;;;;4914146;28;87697;-72
2024/02/11 07:31:42;;;;;;;19.50;11.57;;;8.10;99.90;8.00;97840.00;;;;4908940;28;88374;-71
2024/02/11 07:34:10;;;;;;;24.67;11.47;;;8.10;99.90;8.00;97855.00;;;;4907830;28;114429;-72
2024/02/11 07:36:38;;;;;;;19.27;10.37;;;8.10;99.90;8.00;97857.00;;;;4907117;28;88949;-72
2024/02/11 07:39:04;;;;;;;18.13;12.23;;;8.10;99.90;8.00;97855.00;;;;4906321;28;88936;-71
2024/02/11 07:41:29;;;;;;;17.17;12.60;;;8.00;99.90;8.00;97853.00;;;;4909004;28;117517;-72
2024/02/11 07:43:55;;;;;;;20.87;12.40;;;8.10;99.90;8.00;97850.00;;;;4907625;28;87965;-72
2024/02/11 07:46:21;;;;;;;24.57;13.23;;;8.10;99.90;8.00;97862.00;;;;4903901;28;107447;-72
2024/02/11 07:48:48;;;;;;;15.27;11.40;;;8.10;99.90;8.00;97855.00;;;;4905548;28;88532;-72
2024/02/11 07:51:14;;;;;;;16.97;12.13;;;8.10;99.90;8.10;97862.00;;;;4904617;28;88126;-72
2024/02/11 07:53:40;;;;;;;19.30;12.10;;;8.10;99.90;8.10;97857.00;;;;4909685;28;87791;-72
2024/02/11 07:56:14;;;;;;;19.90;13.23;;;8.20;99.90;8.10;97857.00;;;;4895542;28;87708;-72
2024/02/11 07:58:41;;;;;;;16.47;11.13;;;8.20;99.90;8.10;97862.00;;;;4907972;28;89332;-72
2024/02/11 08:01:07;;;;;;;15.47;11.00;;;8.20;99.90;8.10;97859.00;;;;4908355;28;89219;-73
2024/02/11 08:03:33;;;;;;;23.40;12.67;;;8.20;99.90;8.10;97861.00;;;;4906418;28;112875;-73
2024/02/11 08:05:59;;;;;;;19.43;10.87;;;8.20;99.90;8.10;97862.00;;;;4908387;28;87943;-73
2024/02/11 08:08:25;;;;;;;20.17;11.50;;;8.20;99.90;8.20;97858.00;;;;4906131;28;108430;-73
2024/02/11 08:10:52;;;;;;;22.27;13.10;;;8.30;99.90;8.20;97861.00;;;;4908493;28;105948;-73
2024/02/11 08:13:17;;;;;;;19.03;11.80;;;8.30;99.90;8.20;97856.00;;;;4906224;28;99221;-73
2024/02/11 08:15:45;;;;;;;16.33;11.70;;;8.30;99.90;8.20;97862.00;;;;4905357;28;91900;-74
2024/02/11 08:18:11;;;;;;;18.07;11.27;;;8.30;99.90;8.20;97863.00;;;;4907748;28;87829;-74
2024/02/11 08:20:37;;;;;;;16.93;10.90;;;8.20;99.90;8.20;97852.00;;;;4905481;28;109405;-75
2024/02/11 08:23:02;;;;;;;20.63;13.43;;;8.30;99.90;8.20;97856.00;;;;4908419;28;112994;-75
2024/02/11 08:25:28;;;;;;;21.27;12.53;;;8.30;99.90;8.30;97869.00;;;;4904504;28;108545;-75
2024/02/11 08:27:55;;;;;;;20.50;11.13;;;8.40;99.90;8.30;97858.00;;;;4903968;28;89294;-75
2024/02/11 08:30:22;;;;;;;19.83;11.93;;;8.30;99.90;8.30;97869.00;;;;4905133;28;89629;-73
2024/02/11 08:32:48;;;;;;;18.60;10.70;;;8.40;99.90;8.30;97865.00;;;;4905348;28;87680;-74
2024/02/11 08:35:14;;;;;;;20.13;11.50;;;8.40;99.90;8.30;97866.00;;;;4911759;28;87731;-78
2024/02/11 08:37:40;;;;;;;19.67;11.77;;;8.40;99.90;8.40;97872.00;;;;4903968;28;89821;-77
2024/02/11 08:40:07;;;;;;;20.70;12.93;;;8.40;99.90;8.40;97863.00;;;;4907262;28;88488;-78
2024/02/11 08:42:33;;;;;;;27.30;12.73;;;8.40;99.90;8.40;97868.00;;;;4907586;28;101901;-78
2024/02/11 08:45:00;;;;;;;20.40;12.77;;;8.50;99.90;8.40;97861.00;;;;4906195;28;108481;-78
2024/02/11 08:47:26;;;;;;;16.57;12.27;;;8.50;99.90;8.40;97866.00;;;;4907973;28;88358;-78
2024/02/11 08:49:52;;;;;;;18.50;11.93;;;8.50;99.90;8.50;97870.00;;;;4905635;28;120617;-78
2024/02/11 08:52:17;;;;;;;20.20;11.27;;;8.50;99.90;8.50;97874.00;;;;4907919;28;112830;-77
2024/02/11 08:54:43;;;;;;;20.27;11.47;;;8.50;99.90;8.50;97864.00;;;;4909242;28;96992;-77
2024/02/11 08:57:22;;;;;;;21.10;10.97;;;8.60;99.90;8.50;97878.00;;;;4906212;28;115130;-77
2024/02/11 08:59:48;;;;;;;18.60;12.63;;;8.60;99.90;8.50;97873.00;;;;4908354;28;87886;-77
2024/02/11 09:02:17;;;;;;;18.60;11.17;;;8.60;99.90;8.50;97870.00;;;;4909193;28;88159;-78
2024/02/11 09:04:43;;;;;;;18.37;10.73;;;8.60;99.90;8.50;97871.00;;;;4905713;28;88153;-78
2024/02/11 09:07:10;;;;;;;17.70;10.80;;;8.60;99.90;8.60;97862.00;;;;4888213;28;108661;-77
2024/02/11 09:09:36;;;;;;;18.07;10.93;;;8.60;99.90;8.60;97870.00;;;;4909464;28;87794;-77
2024/02/11 09:12:03;;;;;;;15.20;11.43;;;8.60;99.90;8.60;97874.00;;;;4904425;28;99765;-76
2024/02/11 09:14:30;;;;;;;14.63;11.13;;;8.60;99.90;8.60;97869.00;;;;4906175;28;92870;-77
2024/02/11 09:16:58;;;;;;;21.87;13.53;;;8.60;99.90;8.60;97871.00;;;;4906324;28;88641;-75
2024/02/11 09:19:27;;;;;;;22.10;13.07;;;8.70;99.90;8.60;97873.00;;;;4908666;28;97589;-77
2024/02/11 09:21:58;;;;;;;15.83;12.13;;;8.70;99.90;8.60;97872.00;;;;4907336;28;112681;-76
2024/02/11 09:24:25;;;;;;;23.87;12.77;;;8.70;99.90;8.60;97878.00;;;;4914601;28;88162;-76
2024/02/11 09:26:51;;;;;;;23.63;13.03;;;8.70;99.90;8.60;97872.00;;;;4906574;28;89924;-76
2024/02/11 09:29:18;;;;;;;14.63;11.17;;;8.70;99.90;8.60;97869.00;;;;4907318;28;109642;-75
2024/02/11 09:31:44;;;;;;;19.53;13.03;;;8.70;99.90;8.70;97873.00;;;;4904607;28;95264;-75
2024/02/11 09:34:11;;;;;;;26.53;12.77;;;8.90;99.90;8.70;97873.00;;;;4895242;28;87321;-75
2024/02/11 09:36:38;;;;;;;20.30;12.40;;;8.70;99.90;8.70;97865.00;;;;4897087;28;88349;-75
2024/02/11 09:39:04;;;;;;;16.63;10.50;;;8.80;99.90;8.70;97872.00;;;;4908770;28;88303;-74
2024/02/11 09:41:30;;;;;;;23.57;13.03;;;8.80;99.90;8.80;97868.00;;;;4905965;28;106542;-74
2024/02/11 09:43:58;;;;;;;20.40;11.83;;;9.20;99.90;8.80;97866.00;;;;4908745;28;87615;-74
2024/02/11 09:46:34;;;;;;;21.90;12.07;;;8.80;99.90;8.80;97873.00;;;;4909913;28;88344;-74
2024/02/11 09:49:05;;;;;;;19.67;13.50;;;8.80;99.90;8.80;97876.00;;;;4906985;28;88536;-74
2024/02/11 09:51:32;;;;;;;21.97;12.33;;;8.90;99.90;8.80;97875.00;;;;4911807;28;87884;-74
2024/02/11 09:54:05;;;;;;;18.23;11.97;;;9.20;99.90;8.80;97875.00;;;;4910981;28;107952;-72
2024/02/11 09:56:31;;;;;;;19.37;12.73;;;8.90;99.90;8.90;97877.00;;;;4906334;28;90594;-72
2024/02/11 09:58:57;;;;;;;23.20;14.13;;;8.90;99.90;8.90;97886.00;;;;4922661;28;87784;-72
2024/02/11 10:01:23;;;;;;;24.33;13.63;;;8.90;99.90;8.90;97873.00;;;;4910546;28;88372;-72
2024/02/11 10:03:53;;;;;;;18.77;12.20;;;8.90;99.90;8.90;97875.00;;;;4910528;28;108936;-72
2024/02/11 10:06:27;;;;;;;24.70;13.50;;;9.00;99.90;8.90;97884.00;;;;4906007;28;89106;-73
2024/02/11 10:08:54;;;;;;;20.50;13.90;;;9.00;99.90;9.00;97881.00;;;;4908978;28;88692;-73
2024/02/11 10:11:20;;;;;;;19.37;12.43;;;9.00;99.90;9.00;97885.00;;;;4904261;28;87903;-73
2024/02/11 10:13:45;;;;;;;22.80;13.53;;;9.00;99.90;9.00;97874.00;;;;4904908;28;88248;-73
2024/02/11 10:16:12;;;;;;;23.50;13.07;;;9.10;99.90;9.00;97879.00;;;;4906080;28;120241;-74
2024/02/11 10:18:39;;;;;;;18.03;12.53;;;9.00;99.90;9.00;97877.00;;;;4905864;28;88794;-74
2024/02/11 10:21:08;;;;;;;22.13;13.83;;;9.10;99.90;9.00;97868.00;;;;4907800;28;87978;-74
2024/02/11 10:23:39;;;;;;;16.03;11.70;;;9.10;99.90;9.00;97871.00;;;;4906993;28;86978;-73
2024/02/11 10:26:09;;;;;;;21.33;12.50;;;9.10;99.90;9.10;97879.00;;;;4902542;28;87950;-73
2024/02/11 10:28:37;;;;;;;20.17;11.50;;;9.10;99.90;9.10;97870.00;;;;4903841;28;88327;-73
2024/02/11 10:31:04;;;;;;;16.47;11.37;;;9.10;99.90;9.10;97859.00;;;;4904203;28;88975;-73
2024/02/11 10:33:29;;;;;;;19.17;12.83;;;9.20;99.90;9.10;97878.00;;;;4904143;28;88136;-73
2024/02/11 10:36:02;;;;;;;21.40;13.70;;;9.20;99.90;9.10;97870.00;;;;4907347;28;116896;-73
2024/02/11 10:38:28;;;;;;;23.77;12.10;;;9.20;99.90;9.10;97875.00;;;;4906739;28;88377;-72
2024/02/11 10:40:54;;;;;;;18.80;12.67;;;9.20;99.90;9.10;97871.00;;;;4918931;28;112449;-71
2024/02/11 10:43:24;;;;;;;22.33;12.77;;;9.20;99.90;9.10;97876.00;;;;4907873;28;90090;-70
2024/02/11 10:45:51;;;;;;;22.17;12.20;;;9.20;99.90;9.10;97879.00;;;;4910663;28;89217;-70
2024/02/11 10:48:21;;;;;;;22.03;12.53;;;9.20;99.90;9.10;97867.00;;;;4909223;28;87951;-71
2024/02/11 10:51:10;;;;;;;16.67;11.10;;;9.20;99.90;9.10;97863.00;;;;4910210;28;90731;-71
2024/02/11 10:53:37;;;;;;;20.03;10.80;;;9.20;99.90;9.20;97866.00;;;;4910315;28;94741;-70